Terminal Aerodrome Forecast
Issued by NWS Dodge City, KS

Home | Current Version | Previous Version | Text Only | Print | Product List | Glossary On
Versions: 1 2 3 4 5 6 7 8 9 10 11 12 13 14 15
000
FTUS43 KDDC 290524
TAFDDC
TAF
KDDC 290524Z 2906/3006 36020G29KT 2SM RA BR SCT006 OVC028
     FM290700 02016G25KT 4SM -RA BR OVC008
      TEMPO 2911/2914 1 1/2SM RA BR OVC003
     FM300300 01019G27KT 2SM -RASN OVC003=

USA.gov is the U.S. government's official web portal to all federal, state and local government web resources and services.